sensor_id;sensor_type;location;lat;lon;timestamp;P1;durP1;ratioP1;P2;durP2;ratioP2
1400;SDS011;46518;48.842;8.926;2022-12-11T00:55:02;21.42;;;12.70;;
1400;SDS011;46518;48.842;8.926;2022-12-11T00:58:12;22.23;;;13.32;;
1400;SDS011;46518;48.842;8.926;2022-12-11T01:01:27;21.60;;;13.88;;
1400;SDS011;46518;48.842;8.926;2022-12-11T01:05:27;21.55;;;14.00;;
1400;SDS011;46518;48.842;8.926;2022-12-11T01:09:35;21.25;;;13.15;;
1400;SDS011;46518;48.842;8.926;2022-12-11T01:54:18;24.85;;;14.85;;
1400;SDS011;46518;48.842;8.926;2022-12-11T01:57:27;24.08;;;16.20;;
1400;SDS011;46518;48.842;8.926;2022-12-11T02:00:15;24.00;;;15.25;;
1400;SDS011;46518;48.842;8.926;2022-12-11T02:03:32;21.00;;;14.32;;
1400;SDS011;46518;48.842;8.926;2022-12-11T02:07:09;21.67;;;13.00;;
1400;SDS011;46518;48.842;8.926;2022-12-11T02:10:36;23.25;;;15.23;;
1400;SDS011;46518;48.842;8.926;2022-12-11T02:14:21;25.23;;;14.60;;
1400;SDS011;46518;48.842;8.926;2022-12-11T02:17:22;19.90;;;13.80;;
1400;SDS011;46518;48.842;8.926;2022-12-11T02:20:29;20.27;;;14.73;;
1400;SDS011;46518;48.842;8.926;2022-12-11T02:23:43;18.27;;;12.18;;
1400;SDS011;46518;48.842;8.926;2022-12-11T02:27:28;21.83;;;14.15;;
1400;SDS011;46518;48.842;8.926;2022-12-11T02:30:50;28.33;;;16.67;;
1400;SDS011;46518;48.842;8.926;2022-12-11T02:33:43;18.40;;;12.88;;
1400;SDS011;46518;48.842;8.926;2022-12-11T02:46:24;21.40;;;13.35;;
1400;SDS011;46518;48.842;8.926;2022-12-11T02:49:38;29.80;;;14.57;;
1400;SDS011;46518;48.842;8.926;2022-12-11T02:53:06;23.77;;;13.82;;
1400;SDS011;46518;48.842;8.926;2022-12-11T02:56:44;21.85;;;14.23;;
1400;SDS011;46518;48.842;8.926;2022-12-11T02:59:54;24.15;;;15.98;;
1400;SDS011;46518;48.842;8.926;2022-12-11T03:03:19;22.77;;;14.10;;
1400;SDS011;46518;48.842;8.926;2022-12-11T03:06:23;20.95;;;13.40;;
1400;SDS011;46518;48.842;8.926;2022-12-11T03:09:31;20.90;;;13.18;;
1400;SDS011;46518;48.842;8.926;2022-12-11T03:12:28;18.35;;;12.63;;
1400;SDS011;46518;48.842;8.926;2022-12-11T03:15:27;21.05;;;13.43;;
1400;SDS011;46518;48.842;8.926;2022-12-11T03:18:45;20.10;;;14.02;;
1400;SDS011;46518;48.842;8.926;2022-12-11T03:22:12;18.30;;;14.07;;
1400;SDS011;46518;48.842;8.926;2022-12-11T03:25:11;18.95;;;12.20;;
1400;SDS011;46518;48.842;8.926;2022-12-11T03:27:51;20.95;;;14.55;;
1400;SDS011;46518;48.842;8.926;2022-12-11T03:39:15;17.65;;;12.95;;
1400;SDS011;46518;48.842;8.926;2022-12-11T03:42:50;20.83;;;12.82;;
1400;SDS011;46518;48.842;8.926;2022-12-11T03:45:29;20.15;;;12.38;;
1400;SDS011;46518;48.842;8.926;2022-12-11T03:48:15;23.40;;;13.75;;
1400;SDS011;46518;48.842;8.926;2022-12-11T03:51:33;26.25;;;14.35;;
1400;SDS011;46518;48.842;8.926;2022-12-11T03:54:47;21.30;;;11.85;;
1400;SDS011;46518;48.842;8.926;2022-12-11T03:57:45;20.05;;;12.05;;
1400;SDS011;46518;48.842;8.926;2022-12-11T04:00:48;20.05;;;13.13;;
1400;SDS011;46518;48.842;8.926;2022-12-11T04:03:57;18.55;;;12.90;;
1400;SDS011;46518;48.842;8.926;2022-12-11T04:06:49;20.13;;;11.50;;
1400;SDS011;46518;48.842;8.926;2022-12-11T04:10:15;19.88;;;12.18;;
1400;SDS011;46518;48.842;8.926;2022-12-11T04:12:47;30.48;;;13.60;;
1400;SDS011;46518;48.842;8.926;2022-12-11T04:15:22;17.73;;;11.88;;
1400;SDS011;46518;48.842;8.926;2022-12-11T04:18:02;22.65;;;14.23;;
1400;SDS011;46518;48.842;8.926;2022-12-11T04:20:52;20.77;;;13.15;;
1400;SDS011;46518;48.842;8.926;2022-12-11T04:24:01;22.95;;;14.25;;
1400;SDS011;46518;48.842;8.926;2022-12-11T04:26:47;23.70;;;14.15;;
1400;SDS011;46518;48.842;8.926;2022-12-11T04:29:21;21.80;;;13.15;;
1400;SDS011;46518;48.842;8.926;2022-12-11T04:31:54;20.88;;;13.25;;
1400;SDS011;46518;48.842;8.926;2022-12-11T04:34:35;19.98;;;12.18;;
1400;SDS011;46518;48.842;8.926;2022-12-11T04:37:16;23.85;;;14.13;;
1400;SDS011;46518;48.842;8.926;2022-12-11T04:39:48;24.33;;;14.43;;
1400;SDS011;46518;48.842;8.926;2022-12-11T04:42:22;19.00;;;13.15;;
1400;SDS011;46518;48.842;8.926;2022-12-11T04:45:00;20.73;;;13.43;;
1400;SDS011;46518;48.842;8.926;2022-12-11T04:47:31;23.15;;;14.35;;
1400;SDS011;46518;48.842;8.926;2022-12-11T04:50:41;20.83;;;13.80;;
1400;SDS011;46518;48.842;8.926;2022-12-11T04:53:15;22.45;;;12.50;;
1400;SDS011;46518;48.842;8.926;2022-12-11T04:55:46;21.83;;;12.10;;
1400;SDS011;46518;48.842;8.926;2022-12-11T04:58:18;23.17;;;12.38;;
1400;SDS011;46518;48.842;8.926;2022-12-11T05:01:11;19.90;;;11.85;;
1400;SDS011;46518;48.842;8.926;2022-12-11T05:03:44;21.02;;;12.82;;
1400;SDS011;46518;48.842;8.926;2022-12-11T05:06:16;18.73;;;11.50;;
1400;SDS011;46518;48.842;8.926;2022-12-11T05:08:47;18.85;;;11.65;;
1400;SDS011;46518;48.842;8.926;2022-12-11T05:11:18;20.63;;;13.00;;
1400;SDS011;46518;48.842;8.926;2022-12-11T05:13:52;19.63;;;12.52;;
1400;SDS011;46518;48.842;8.926;2022-12-11T05:16:24;24.58;;;12.27;;
1400;SDS011;46518;48.842;8.926;2022-12-11T05:19:06;22.05;;;12.60;;
1400;SDS011;46518;48.842;8.926;2022-12-11T05:27:46;23.00;;;13.35;;
1400;SDS011;46518;48.842;8.926;2022-12-11T05:39:56;20.17;;;13.25;;
1400;SDS011;46518;48.842;8.926;2022-12-11T05:43:36;20.77;;;12.13;;
1400;SDS011;46518;48.842;8.926;2022-12-11T05:47:20;20.45;;;11.93;;
1400;SDS011;46518;48.842;8.926;2022-12-11T05:50:03;26.88;;;15.20;;
1400;SDS011;46518;48.842;8.926;2022-12-11T05:52:57;22.38;;;14.30;;
1400;SDS011;46518;48.842;8.926;2022-12-11T05:56:05;22.85;;;14.73;;
1400;SDS011;46518;48.842;8.926;2022-12-11T05:59:10;24.55;;;14.52;;
1400;SDS011;46518;48.842;8.926;2022-12-11T06:01:50;23.23;;;15.93;;
1400;SDS011;46518;48.842;8.926;2022-12-11T06:04:27;23.65;;;15.57;;
1400;SDS011;46518;48.842;8.926;2022-12-11T06:07:05;26.63;;;14.93;;
1400;SDS011;46518;48.842;8.926;2022-12-11T06:09:52;24.95;;;15.70;;
1400;SDS011;46518;48.842;8.926;2022-12-11T06:12:33;25.50;;;15.95;;
1400;SDS011;46518;48.842;8.926;2022-12-11T06:15:12;26.15;;;16.38;;
1400;SDS011;46518;48.842;8.926;2022-12-11T06:17:54;26.45;;;16.85;;
1400;SDS011;46518;48.842;8.926;2022-12-11T06:20:35;28.35;;;18.08;;
1400;SDS011;46518;48.842;8.926;2022-12-11T06:23:26;27.27;;;17.33;;
1400;SDS011;46518;48.842;8.926;2022-12-11T06:26:02;26.40;;;15.75;;
1400;SDS011;46518;48.842;8.926;2022-12-11T06:28:36;31.10;;;18.05;;
1400;SDS011;46518;48.842;8.926;2022-12-11T06:31:11;27.52;;;16.67;;
1400;SDS011;46518;48.842;8.926;2022-12-11T06:33:45;30.52;;;17.15;;
1400;SDS011;46518;48.842;8.926;2022-12-11T06:40:00;34.53;;;19.25;;
1400;SDS011;46518;48.842;8.926;2022-12-11T06:47:30;25.70;;;16.77;;
1400;SDS011;46518;48.842;8.926;2022-12-11T06:49:58;34.90;;;21.02;;
1400;SDS011;46518;48.842;8.926;2022-12-11T06:52:30;32.65;;;21.23;;
1400;SDS011;46518;48.842;8.926;2022-12-11T06:54:58;29.02;;;18.85;;
1400;SDS011;46518;48.842;8.926;2022-12-11T06:57:26;32.13;;;19.70;;
1400;SDS011;46518;48.842;8.926;2022-12-11T06:59:54;30.58;;;18.83;;
1400;SDS011;46518;48.842;8.926;2022-12-11T07:02:23;35.67;;;21.58;;
1400;SDS011;46518;48.842;8.926;2022-12-11T07:04:53;37.60;;;19.58;;
1400;SDS011;46518;48.842;8.926;2022-12-11T07:07:21;28.13;;;18.60;;
1400;SDS011;46518;48.842;8.926;2022-12-11T07:09:50;33.35;;;18.13;;
1400;SDS011;46518;48.842;8.926;2022-12-11T07:12:18;33.17;;;19.90;;
1400;SDS011;46518;48.842;8.926;2022-12-11T07:14:56;35.83;;;20.02;;
1400;SDS011;46518;48.842;8.926;2022-12-11T07:17:24;31.42;;;18.83;;
1400;SDS011;46518;48.842;8.926;2022-12-11T07:19:53;32.00;;;19.35;;
1400;SDS011;46518;48.842;8.926;2022-12-11T07:22:22;30.38;;;19.60;;
1400;SDS011;46518;48.842;8.926;2022-12-11T07:24:50;28.55;;;19.10;;
1400;SDS011;46518;48.842;8.926;2022-12-11T07:27:19;33.78;;;20.42;;
1400;SDS011;46518;48.842;8.926;2022-12-11T07:29:49;27.30;;;18.15;;
1400;SDS011;46518;48.842;8.926;2022-12-11T07:32:17;31.70;;;18.45;;
1400;SDS011;46518;48.842;8.926;2022-12-11T07:34:47;28.65;;;17.98;;
1400;SDS011;46518;48.842;8.926;2022-12-11T07:37:19;33.15;;;19.20;;
1400;SDS011;46518;48.842;8.926;2022-12-11T07:39:47;36.17;;;20.05;;
1400;SDS011;46518;48.842;8.926;2022-12-11T07:42:15;35.30;;;19.25;;
1400;SDS011;46518;48.842;8.926;2022-12-11T07:44:43;33.58;;;19.20;;
1400;SDS011;46518;48.842;8.926;2022-12-11T07:47:12;30.58;;;18.20;;
1400;SDS011;46518;48.842;8.926;2022-12-11T07:49:40;31.00;;;17.70;;
1400;SDS011;46518;48.842;8.926;2022-12-11T07:52:08;30.85;;;19.13;;
1400;SDS011;46518;48.842;8.926;2022-12-11T07:54:38;36.25;;;21.65;;
1400;SDS011;46518;48.842;8.926;2022-12-11T07:57:06;26.85;;;17.45;;
1400;SDS011;46518;48.842;8.926;2022-12-11T07:59:39;34.53;;;19.83;;
1400;SDS011;46518;48.842;8.926;2022-12-11T08:02:11;36.90;;;21.42;;
1400;SDS011;46518;48.842;8.926;2022-12-11T08:04:39;39.05;;;21.00;;
1400;SDS011;46518;48.842;8.926;2022-12-11T08:07:07;35.55;;;19.85;;
1400;SDS011;46518;48.842;8.926;2022-12-11T08:09:35;28.20;;;18.33;;
1400;SDS011;46518;48.842;8.926;2022-12-11T08:12:05;34.67;;;19.35;;
1400;SDS011;46518;48.842;8.926;2022-12-11T08:14:34;37.20;;;22.02;;
1400;SDS011;46518;48.842;8.926;2022-12-11T08:17:02;45.78;;;24.05;;
1400;SDS011;46518;48.842;8.926;2022-12-11T08:19:31;32.78;;;21.85;;
1400;SDS011;46518;48.842;8.926;2022-12-11T08:22:21;40.78;;;23.27;;
1400;SDS011;46518;48.842;8.926;2022-12-11T08:24:50;35.88;;;20.65;;
1400;SDS011;46518;48.842;8.926;2022-12-11T08:27:48;31.75;;;20.75;;
1400;SDS011;46518;48.842;8.926;2022-12-11T08:30:21;33.95;;;19.80;;
1400;SDS011;46518;48.842;8.926;2022-12-11T08:34:29;28.70;;;17.48;;
1400;SDS011;46518;48.842;8.926;2022-12-11T08:37:23;28.00;;;19.27;;
1400;SDS011;46518;48.842;8.926;2022-12-11T08:40:01;36.03;;;19.00;;
1400;SDS011;46518;48.842;8.926;2022-12-11T08:48:00;36.03;;;19.60;;
1400;SDS011;46518;48.842;8.926;2022-12-11T08:50:29;31.15;;;18.40;;
1400;SDS011;46518;48.842;8.926;2022-12-11T08:53:12;24.17;;;15.70;;
1400;SDS011;46518;48.842;8.926;2022-12-11T08:55:53;24.88;;;16.30;;
1400;SDS011;46518;48.842;8.926;2022-12-11T08:58:22;24.30;;;15.50;;
1400;SDS011;46518;48.842;8.926;2022-12-11T09:00:50;25.17;;;16.95;;
1400;SDS011;46518;48.842;8.926;2022-12-11T09:03:20;23.05;;;16.10;;
1400;SDS011;46518;48.842;8.926;2022-12-11T09:05:48;21.98;;;15.50;;
1400;SDS011;46518;48.842;8.926;2022-12-11T09:08:17;28.42;;;17.00;;
1400;SDS011;46518;48.842;8.926;2022-12-11T09:10:45;25.80;;;17.17;;
1400;SDS011;46518;48.842;8.926;2022-12-11T09:13:13;28.15;;;16.45;;
1400;SDS011;46518;48.842;8.926;2022-12-11T09:15:42;23.90;;;15.48;;
1400;SDS011;46518;48.842;8.926;2022-12-11T09:18:10;20.88;;;15.15;;
1400;SDS011;46518;48.842;8.926;2022-12-11T09:20:39;21.50;;;14.32;;
1400;SDS011;46518;48.842;8.926;2022-12-11T09:23:08;22.35;;;15.10;;
1400;SDS011;46518;48.842;8.926;2022-12-11T09:25:38;21.30;;;15.63;;
1400;SDS011;46518;48.842;8.926;2022-12-11T09:28:06;21.30;;;12.70;;
1400;SDS011;46518;48.842;8.926;2022-12-11T09:30:34;20.75;;;13.32;;
1400;SDS011;46518;48.842;8.926;2022-12-11T09:33:04;25.65;;;13.90;;
1400;SDS011;46518;48.842;8.926;2022-12-11T09:35:32;17.92;;;11.93;;
1400;SDS011;46518;48.842;8.926;2022-12-11T09:38:02;24.60;;;13.75;;
1400;SDS011;46518;48.842;8.926;2022-12-11T09:40:30;22.73;;;15.52;;
1400;SDS011;46518;48.842;8.926;2022-12-11T09:43:00;21.75;;;13.15;;
1400;SDS011;46518;48.842;8.926;2022-12-11T09:45:33;20.60;;;12.88;;
1400;SDS011;46518;48.842;8.926;2022-12-11T09:48:02;20.30;;;13.13;;
1400;SDS011;46518;48.842;8.926;2022-12-11T09:50:49;21.30;;;13.35;;
1400;SDS011;46518;48.842;8.926;2022-12-11T09:53:22;23.15;;;14.25;;
1400;SDS011;46518;48.842;8.926;2022-12-11T09:56:10;16.95;;;12.07;;
1400;SDS011;46518;48.842;8.926;2022-12-11T09:58:48;21.05;;;11.85;;
1400;SDS011;46518;48.842;8.926;2022-12-11T10:01:31;19.58;;;13.07;;
1400;SDS011;46518;48.842;8.926;2022-12-11T10:04:11;21.92;;;14.00;;
1400;SDS011;46518;48.842;8.926;2022-12-11T10:06:57;18.75;;;12.65;;
1400;SDS011;46518;48.842;8.926;2022-12-11T10:09:34;19.35;;;12.07;;
1400;SDS011;46518;48.842;8.926;2022-12-11T10:12:19;16.08;;;11.25;;
1400;SDS011;46518;48.842;8.926;2022-12-11T10:15:02;19.30;;;12.73;;
1400;SDS011;46518;48.842;8.926;2022-12-11T10:17:41;21.90;;;12.70;;
1400;SDS011;46518;48.842;8.926;2022-12-11T10:20:16;20.65;;;12.38;;
1400;SDS011;46518;48.842;8.926;2022-12-11T10:22:52;17.77;;;12.30;;
1400;SDS011;46518;48.842;8.926;2022-12-11T10:25:27;19.08;;;12.07;;
1400;SDS011;46518;48.842;8.926;2022-12-11T10:27:58;19.85;;;13.82;;
1400;SDS011;46518;48.842;8.926;2022-12-11T10:30:28;21.65;;;14.30;;
1400;SDS011;46518;48.842;8.926;2022-12-11T10:33:05;18.60;;;12.48;;
1400;SDS011;46518;48.842;8.926;2022-12-11T10:35:44;17.08;;;12.93;;
1400;SDS011;46518;48.842;8.926;2022-12-11T10:38:19;18.38;;;12.90;;
1400;SDS011;46518;48.842;8.926;2022-12-11T10:40:53;21.27;;;14.38;;
1400;SDS011;46518;48.842;8.926;2022-12-11T10:43:37;19.85;;;12.75;;
1400;SDS011;46518;48.842;8.926;2022-12-11T10:46:13;20.95;;;12.68;;
1400;SDS011;46518;48.842;8.926;2022-12-11T10:48:50;22.50;;;14.00;;
1400;SDS011;46518;48.842;8.926;2022-12-11T10:51:20;16.77;;;12.70;;
1400;SDS011;46518;48.842;8.926;2022-12-11T10:53:51;18.25;;;12.85;;
1400;SDS011;46518;48.842;8.926;2022-12-11T10:56:25;18.85;;;13.27;;
1400;SDS011;46518;48.842;8.926;2022-12-11T10:58:55;20.40;;;13.55;;
1400;SDS011;46518;48.842;8.926;2022-12-11T11:01:25;22.30;;;14.35;;
1400;SDS011;46518;48.842;8.926;2022-12-11T11:03:56;23.63;;;14.45;;
1400;SDS011;46518;48.842;8.926;2022-12-11T11:06:27;24.10;;;14.43;;
1400;SDS011;46518;48.842;8.926;2022-12-11T11:08:56;22.85;;;13.35;;
1400;SDS011;46518;48.842;8.926;2022-12-11T11:11:28;19.40;;;13.00;;
1400;SDS011;46518;48.842;8.926;2022-12-11T11:14:04;18.42;;;12.77;;
1400;SDS011;46518;48.842;8.926;2022-12-11T11:16:34;21.95;;;14.65;;
1400;SDS011;46518;48.842;8.926;2022-12-11T11:19:03;19.73;;;13.20;;
1400;SDS011;46518;48.842;8.926;2022-12-11T11:22:03;19.38;;;12.57;;
1400;SDS011;46518;48.842;8.926;2022-12-11T11:24:34;17.88;;;12.02;;
1400;SDS011;46518;48.842;8.926;2022-12-11T11:27:11;21.75;;;13.15;;
1400;SDS011;46518;48.842;8.926;2022-12-11T11:29:46;19.38;;;13.60;;
1400;SDS011;46518;48.842;8.926;2022-12-11T11:32:19;21.48;;;15.40;;
1400;SDS011;46518;48.842;8.926;2022-12-11T11:34:51;20.23;;;13.75;;
1400;SDS011;46518;48.842;8.926;2022-12-11T11:37:24;20.45;;;13.45;;
1400;SDS011;46518;48.842;8.926;2022-12-11T11:39:58;19.00;;;12.48;;
1400;SDS011;46518;48.842;8.926;2022-12-11T11:42:36;17.75;;;14.02;;
1400;SDS011;46518;48.842;8.926;2022-12-11T11:45:12;17.35;;;12.15;;
1400;SDS011;46518;48.842;8.926;2022-12-11T11:47:47;19.80;;;12.85;;
1400;SDS011;46518;48.842;8.926;2022-12-11T11:50:24;20.50;;;12.75;;
1400;SDS011;46518;48.842;8.926;2022-12-11T11:52:56;20.20;;;13.60;;
1400;SDS011;46518;48.842;8.926;2022-12-11T11:55:36;19.27;;;12.77;;
1400;SDS011;46518;48.842;8.926;2022-12-11T11:58:13;19.77;;;13.30;;
1400;SDS011;46518;48.842;8.926;2022-12-11T12:00:45;20.02;;;13.15;;
1400;SDS011;46518;48.842;8.926;2022-12-11T12:03:15;24.05;;;15.50;;
1400;SDS011;46518;48.842;8.926;2022-12-11T12:05:48;17.08;;;12.13;;
1400;SDS011;46518;48.842;8.926;2022-12-11T12:08:23;20.00;;;13.70;;
1400;SDS011;46518;48.842;8.926;2022-12-11T12:11:02;21.48;;;12.43;;
1400;SDS011;46518;48.842;8.926;2022-12-11T12:13:42;18.13;;;12.60;;
1400;SDS011;46518;48.842;8.926;2022-12-11T12:16:19;19.35;;;12.50;;
1400;SDS011;46518;48.842;8.926;2022-12-11T12:19:18;21.08;;;13.55;;
1400;SDS011;46518;48.842;8.926;2022-12-11T12:22:08;19.40;;;12.95;;
1400;SDS011;46518;48.842;8.926;2022-12-11T12:24:57;16.98;;;11.32;;
1400;SDS011;46518;48.842;8.926;2022-12-11T12:27:36;18.33;;;13.73;;
1400;SDS011;46518;48.842;8.926;2022-12-11T12:30:20;18.20;;;13.23;;
1400;SDS011;46518;48.842;8.926;2022-12-11T12:32:53;20.48;;;13.23;;
1400;SDS011;46518;48.842;8.926;2022-12-11T12:35:33;19.20;;;13.00;;
1400;SDS011;46518;48.842;8.926;2022-12-11T12:38:09;20.98;;;12.85;;
1400;SDS011;46518;48.842;8.926;2022-12-11T12:40:46;26.38;;;13.45;;
1400;SDS011;46518;48.842;8.926;2022-12-11T12:43:31;25.15;;;14.07;;
1400;SDS011;46518;48.842;8.926;2022-12-11T12:46:18;19.77;;;13.55;;
1400;SDS011;46518;48.842;8.926;2022-12-11T12:48:54;21.23;;;14.57;;
1400;SDS011;46518;48.842;8.926;2022-12-11T12:51:25;24.40;;;16.15;;
1400;SDS011;46518;48.842;8.926;2022-12-11T12:53:58;19.30;;;12.98;;
1400;SDS011;46518;48.842;8.926;2022-12-11T12:56:36;21.83;;;15.07;;
1400;SDS011;46518;48.842;8.926;2022-12-11T12:59:06;22.60;;;14.10;;
1400;SDS011;46518;48.842;8.926;2022-12-11T13:01:47;18.35;;;13.52;;
1400;SDS011;46518;48.842;8.926;2022-12-11T13:04:33;27.08;;;14.00;;
1400;SDS011;46518;48.842;8.926;2022-12-11T13:07:25;19.88;;;13.88;;
1400;SDS011;46518;48.842;8.926;2022-12-11T13:10:00;21.50;;;13.98;;
1400;SDS011;46518;48.842;8.926;2022-12-11T13:12:33;22.13;;;13.70;;
1400;SDS011;46518;48.842;8.926;2022-12-11T13:15:22;24.23;;;15.52;;
1400;SDS011;46518;48.842;8.926;2022-12-11T13:17:53;25.10;;;16.45;;
1400;SDS011;46518;48.842;8.926;2022-12-11T13:20:22;26.35;;;15.40;;
1400;SDS011;46518;48.842;8.926;2022-12-11T13:22:53;24.17;;;16.27;;
1400;SDS011;46518;48.842;8.926;2022-12-11T13:25:44;25.48;;;16.27;;
1400;SDS011;46518;48.842;8.926;2022-12-11T13:28:22;24.17;;;16.40;;
1400;SDS011;46518;48.842;8.926;2022-12-11T13:31:04;22.27;;;15.23;;
1400;SDS011;46518;48.842;8.926;2022-12-11T13:33:47;25.00;;;15.52;;
1400;SDS011;46518;48.842;8.926;2022-12-11T13:36:24;26.15;;;15.73;;
1400;SDS011;46518;48.842;8.926;2022-12-11T13:38:58;24.58;;;15.32;;
1400;SDS011;46518;48.842;8.926;2022-12-11T13:41:29;22.13;;;14.95;;
1400;SDS011;46518;48.842;8.926;2022-12-11T13:44:01;28.00;;;15.70;;
1400;SDS011;46518;48.842;8.926;2022-12-11T13:46:33;27.73;;;17.58;;
1400;SDS011;46518;48.842;8.926;2022-12-11T13:49:05;24.35;;;14.98;;
1400;SDS011;46518;48.842;8.926;2022-12-11T13:51:50;24.20;;;15.18;;
1400;SDS011;46518;48.842;8.926;2022-12-11T13:54:20;24.52;;;15.07;;
1400;SDS011;46518;48.842;8.926;2022-12-11T13:56:52;23.27;;;16.20;;
1400;SDS011;46518;48.842;8.926;2022-12-11T13:59:25;24.23;;;15.00;;
1400;SDS011;46518;48.842;8.926;2022-12-11T14:01:56;22.55;;;14.38;;
1400;SDS011;46518;48.842;8.926;2022-12-11T14:04:29;22.48;;;14.07;;
1400;SDS011;46518;48.842;8.926;2022-12-11T14:07:00;22.77;;;15.15;;
1400;SDS011;46518;48.842;8.926;2022-12-11T14:09:29;23.75;;;16.20;;
1400;SDS011;46518;48.842;8.926;2022-12-11T14:11:57;23.70;;;14.88;;
1400;SDS011;46518;48.842;8.926;2022-12-11T14:14:27;26.33;;;15.50;;
1400;SDS011;46518;48.842;8.926;2022-12-11T14:17:01;23.77;;;15.93;;
1400;SDS011;46518;48.842;8.926;2022-12-11T14:19:31;20.58;;;14.60;;
1400;SDS011;46518;48.842;8.926;2022-12-11T14:22:00;26.05;;;14.82;;
1400;SDS011;46518;48.842;8.926;2022-12-11T14:24:30;19.40;;;13.85;;
1400;SDS011;46518;48.842;8.926;2022-12-11T14:26:59;22.55;;;14.75;;
1400;SDS011;46518;48.842;8.926;2022-12-11T14:29:28;25.10;;;15.50;;
1400;SDS011;46518;48.842;8.926;2022-12-11T14:32:00;22.55;;;15.00;;
1400;SDS011;46518;48.842;8.926;2022-12-11T14:34:33;22.88;;;15.82;;
1400;SDS011;46518;48.842;8.926;2022-12-11T14:37:04;33.17;;;18.55;;
1400;SDS011;46518;48.842;8.926;2022-12-11T14:39:35;36.15;;;21.30;;
1400;SDS011;46518;48.842;8.926;2022-12-11T14:42:09;29.85;;;18.13;;
1400;SDS011;46518;48.842;8.926;2022-12-11T14:44:44;32.25;;;19.95;;
1400;SDS011;46518;48.842;8.926;2022-12-11T14:47:17;31.67;;;20.80;;
1400;SDS011;46518;48.842;8.926;2022-12-11T14:49:52;33.25;;;18.88;;
1400;SDS011;46518;48.842;8.926;2022-12-11T14:52:24;31.90;;;21.00;;
1400;SDS011;46518;48.842;8.926;2022-12-11T14:55:11;30.75;;;18.63;;
1400;SDS011;46518;48.842;8.926;2022-12-11T14:57:45;33.83;;;19.10;;
1400;SDS011;46518;48.842;8.926;2022-12-11T15:00:23;33.53;;;19.45;;
1400;SDS011;46518;48.842;8.926;2022-12-11T15:02:56;32.25;;;19.45;;
1400;SDS011;46518;48.842;8.926;2022-12-11T15:05:27;36.88;;;20.63;;
1400;SDS011;46518;48.842;8.926;2022-12-11T15:08:14;34.00;;;21.67;;
1400;SDS011;46518;48.842;8.926;2022-12-11T15:10:56;44.53;;;25.65;;
1400;SDS011;46518;48.842;8.926;2022-12-11T15:13:48;38.03;;;23.55;;
1400;SDS011;46518;48.842;8.926;2022-12-11T15:16:19;34.08;;;22.80;;
1400;SDS011;46518;48.842;8.926;2022-12-11T15:18:50;37.95;;;24.67;;
1400;SDS011;46518;48.842;8.926;2022-12-11T15:21:27;44.60;;;24.70;;
1400;SDS011;46518;48.842;8.926;2022-12-11T15:23:58;33.58;;;20.98;;
1400;SDS011;46518;48.842;8.926;2022-12-11T15:26:32;31.98;;;19.20;;
1400;SDS011;46518;48.842;8.926;2022-12-11T15:29:03;37.42;;;21.67;;
1400;SDS011;46518;48.842;8.926;2022-12-11T15:31:33;32.83;;;20.50;;
1400;SDS011;46518;48.842;8.926;2022-12-11T15:34:01;35.88;;;22.73;;
1400;SDS011;46518;48.842;8.926;2022-12-11T15:36:31;34.13;;;21.60;;
1400;SDS011;46518;48.842;8.926;2022-12-11T15:39:02;40.10;;;23.05;;
1400;SDS011;46518;48.842;8.926;2022-12-11T15:41:34;47.40;;;24.65;;
1400;SDS011;46518;48.842;8.926;2022-12-11T15:44:02;41.92;;;25.00;;
1400;SDS011;46518;48.842;8.926;2022-12-11T15:46:34;43.22;;;25.00;;
1400;SDS011;46518;48.842;8.926;2022-12-11T15:49:04;41.10;;;25.63;;
1400;SDS011;46518;48.842;8.926;2022-12-11T15:51:40;38.15;;;25.48;;
1400;SDS011;46518;48.842;8.926;2022-12-11T15:54:09;36.80;;;21.30;;
1400;SDS011;46518;48.842;8.926;2022-12-11T15:56:37;40.40;;;23.85;;
1400;SDS011;46518;48.842;8.926;2022-12-11T15:59:06;37.85;;;23.60;;
1400;SDS011;46518;48.842;8.926;2022-12-11T16:01:34;39.00;;;23.92;;
1400;SDS011;46518;48.842;8.926;2022-12-11T16:04:03;43.05;;;24.48;;
1400;SDS011;46518;48.842;8.926;2022-12-11T16:06:31;43.58;;;29.00;;
1400;SDS011;46518;48.842;8.926;2022-12-11T16:09:01;43.83;;;25.67;;
1400;SDS011;46518;48.842;8.926;2022-12-11T16:11:30;41.78;;;24.40;;
1400;SDS011;46518;48.842;8.926;2022-12-11T16:14:01;32.55;;;22.17;;
1400;SDS011;46518;48.842;8.926;2022-12-11T16:16:32;38.00;;;23.10;;
1400;SDS011;46518;48.842;8.926;2022-12-11T16:19:00;40.30;;;25.02;;
1400;SDS011;46518;48.842;8.926;2022-12-11T16:21:29;38.33;;;22.40;;
1400;SDS011;46518;48.842;8.926;2022-12-11T16:23:57;35.65;;;21.15;;
1400;SDS011;46518;48.842;8.926;2022-12-11T16:26:27;36.22;;;21.75;;
1400;SDS011;46518;48.842;8.926;2022-12-11T16:28:55;35.90;;;22.58;;
1400;SDS011;46518;48.842;8.926;2022-12-11T16:31:23;39.20;;;23.35;;
1400;SDS011;46518;48.842;8.926;2022-12-11T16:33:51;41.70;;;24.58;;
1400;SDS011;46518;48.842;8.926;2022-12-11T16:36:20;33.67;;;21.75;;
1400;SDS011;46518;48.842;8.926;2022-12-11T16:38:48;38.50;;;23.40;;
1400;SDS011;46518;48.842;8.926;2022-12-11T16:41:20;36.22;;;21.95;;
1400;SDS011;46518;48.842;8.926;2022-12-11T16:43:50;39.17;;;22.15;;
1400;SDS011;46518;48.842;8.926;2022-12-11T16:46:21;36.40;;;20.90;;
1400;SDS011;46518;48.842;8.926;2022-12-11T16:48:50;37.67;;;22.85;;
1400;SDS011;46518;48.842;8.926;2022-12-11T16:51:18;43.92;;;25.38;;
1400;SDS011;46518;48.842;8.926;2022-12-11T16:53:47;41.20;;;23.60;;
1400;SDS011;46518;48.842;8.926;2022-12-11T16:56:15;34.97;;;21.55;;
1400;SDS011;46518;48.842;8.926;2022-12-11T16:58:43;37.63;;;23.15;;
1400;SDS011;46518;48.842;8.926;2022-12-11T17:01:14;39.60;;;22.08;;
1400;SDS011;46518;48.842;8.926;2022-12-11T17:03:42;34.25;;;20.63;;
1400;SDS011;46518;48.842;8.926;2022-12-11T17:06:11;44.40;;;23.67;;
1400;SDS011;46518;48.842;8.926;2022-12-11T17:08:40;44.90;;;24.27;;
1400;SDS011;46518;48.842;8.926;2022-12-11T17:11:09;34.78;;;21.42;;
1400;SDS011;46518;48.842;8.926;2022-12-11T17:13:39;37.97;;;22.52;;
1400;SDS011;46518;48.842;8.926;2022-12-11T17:16:17;41.30;;;22.55;;
1400;SDS011;46518;48.842;8.926;2022-12-11T17:18:52;40.05;;;24.17;;
1400;SDS011;46518;48.842;8.926;2022-12-11T17:21:22;34.80;;;20.83;;
1400;SDS011;46518;48.842;8.926;2022-12-11T17:24:02;36.30;;;20.50;;
1400;SDS011;46518;48.842;8.926;2022-12-11T17:27:36;42.38;;;25.55;;
1400;SDS011;46518;48.842;8.926;2022-12-11T17:30:06;39.63;;;23.90;;
1400;SDS011;46518;48.842;8.926;2022-12-11T17:32:37;36.38;;;22.05;;
1400;SDS011;46518;48.842;8.926;2022-12-11T17:35:05;36.15;;;21.38;;
1400;SDS011;46518;48.842;8.926;2022-12-11T17:37:34;36.85;;;22.10;;
1400;SDS011;46518;48.842;8.926;2022-12-11T17:40:02;35.08;;;22.17;;
1400;SDS011;46518;48.842;8.926;2022-12-11T17:42:30;31.88;;;18.90;;
1400;SDS011;46518;48.842;8.926;2022-12-11T17:44:59;37.42;;;21.02;;
1400;SDS011;46518;48.842;8.926;2022-12-11T17:47:27;34.42;;;21.30;;
1400;SDS011;46518;48.842;8.926;2022-12-11T17:49:57;31.25;;;19.83;;
1400;SDS011;46518;48.842;8.926;2022-12-11T17:52:25;36.97;;;21.00;;
1400;SDS011;46518;48.842;8.926;2022-12-11T17:55:00;35.17;;;21.98;;
1400;SDS011;46518;48.842;8.926;2022-12-11T17:57:28;37.78;;;20.92;;
1400;SDS011;46518;48.842;8.926;2022-12-11T17:59:56;35.83;;;22.80;;
1400;SDS011;46518;48.842;8.926;2022-12-11T18:02:24;35.50;;;21.10;;
1400;SDS011;46518;48.842;8.926;2022-12-11T18:04:53;32.17;;;21.35;;
1400;SDS011;46518;48.842;8.926;2022-12-11T18:07:22;37.15;;;24.55;;
1400;SDS011;46518;48.842;8.926;2022-12-11T18:09:50;40.90;;;23.83;;